Time;durP1;ratioP1;P1;durP2;ratioP2;P2;SDS_P1;SDS_P2;PMS_P1;PMS_P2;Temp;Humidity;BMP_temperature;BMP_pressure;BME280_temperature;BME280_humidity;BME280_pressure;Samples;Min_cycle;Max_cycle;Signal;HPM_P1;HPM_P2
2023/03/30 06:31:32;;;;;;;13.85;3.45;;;14.70;99.90;;;;;;6860371;23;19922;-77
2023/03/30 06:34:34;;;;;;;14.50;3.35;;;14.60;99.90;;;;;;6181562;28;20058;-78
2023/03/30 06:37:36;;;;;;;15.35;3.03;;;14.60;99.90;;;;;;6179616;28;20046;-79
2023/03/30 06:40:38;;;;;;;15.52;3.20;;;14.60;99.90;;;;;;6179201;28;20508;-77
2023/03/30 06:43:40;;;;;;;12.60;3.20;;;14.60;99.90;;;;;;6184338;28;20046;-78
2023/03/30 06:46:44;;;;;;;14.57;3.47;;;14.60;99.90;;;;;;6140943;29;20052;-78
2023/03/30 06:49:46;;;;;;;13.77;3.13;;;14.60;99.90;;;;;;6142537;29;20051;-80
2023/03/30 06:52:47;;;;;;;15.10;3.40;;;14.60;99.90;;;;;;6139387;29;20405;-78
2023/03/30 06:55:52;;;;;;;14.43;3.28;;;14.70;99.90;;;;;;6134709;29;20052;-79
2023/03/30 06:58:55;;;;;;;16.30;3.80;;;14.80;99.90;;;;;;6140233;29;20110;-78
2023/03/30 07:01:59;;;;;;;15.77;3.40;;;14.90;99.90;;;;;;6162251;29;20090;-77
2023/03/30 07:05:01;;;;;;;17.02;4.10;;;15.00;99.90;;;;;;6158300;29;20075;-78
2023/03/30 07:08:04;;;;;;;16.60;3.75;;;14.90;99.90;;;;;;6166074;28;20061;-78
2023/03/30 07:11:06;;;;;;;;;;;14.70;99.90;;;;;;6178813;28;20062;-78
2023/03/30 07:14:09;;;;;;;16.73;3.92;;;14.60;99.90;;;;;;6158278;28;19998;-77
2023/03/30 07:17:12;;;;;;;17.90;4.07;;;14.40;99.90;;;;;;6158901;29;20055;-79
2023/03/30 07:20:14;;;;;;;15.50;3.58;;;14.40;99.90;;;;;;6154629;29;20050;-79
2023/03/30 07:23:17;;;;;;;15.95;3.75;;;14.20;99.90;;;;;;6150388;29;20395;-79
2023/03/30 07:26:19;;;;;;;13.38;3.15;;;14.30;99.90;;;;;;6143326;29;20062;-79
2023/03/30 07:29:21;;;;;;;14.80;3.35;;;14.20;99.90;;;;;;6156190;29;20050;-81
2023/03/30 07:32:24;;;;;;;15.77;3.63;;;14.20;99.90;;;;;;6151992;28;20055;-79
2023/03/30 07:35:26;;;;;;;16.33;3.67;;;14.30;99.90;;;;;;6152790;28;20516;-79
2023/03/30 07:38:29;;;;;;;12.77;3.10;;;14.30;99.90;;;;;;6155985;29;20106;-77
2023/03/30 07:41:31;;;;;;;13.88;3.55;;;14.30;99.90;;;;;;6143885;29;20163;-78
2023/03/30 07:44:33;;;;;;;15.85;3.53;;;14.40;99.90;;;;;;6144164;29;20193;-78
2023/03/30 07:47:37;;;;;;;12.07;3.42;;;14.30;99.90;;;;;;6134686;29;20169;-79
2023/03/30 07:50:39;;;;;;;18.95;3.80;;;14.40;99.90;;;;;;6134562;29;20058;-78
2023/03/30 07:53:40;;;;;;;14.48;3.50;;;14.40;99.90;;;;;;6132128;29;20054;-81
2023/03/30 07:56:43;;;;;;;13.65;3.20;;;14.50;99.90;;;;;;6131633;29;20051;-79
2023/03/30 07:59:45;;;;;;;16.35;4.15;;;14.50;99.90;;;;;;6114761;29;20096;-80
2023/03/30 08:02:48;;;;;;;11.45;3.08;;;14.50;99.90;;;;;;6131531;29;20119;-80
2023/03/30 08:05:55;;;;;;;13.52;3.30;;;14.70;99.90;;;;;;6131444;29;20052;-78
2023/03/30 08:08:57;;;;;;;13.75;3.60;;;14.60;99.90;;;;;;6139120;29;20047;-79
2023/03/30 08:11:59;;;;;;;18.08;4.22;;;14.60;99.90;;;;;;6151783;29;20054;-76
2023/03/30 08:15:01;;;;;;;14.23;3.45;;;14.60;99.90;;;;;;6149849;29;20055;-77
2023/03/30 08:18:06;;;;;;;15.57;3.58;;;14.60;99.90;;;;;;6144852;29;20461;-77
2023/03/30 08:21:09;;;;;;;11.48;3.40;;;14.50;99.90;;;;;;6128144;29;20150;-77
2023/03/30 08:24:11;;;;;;;16.48;3.90;;;14.50;99.90;;;;;;6132757;29;20107;-78
2023/03/30 08:27:13;;;;;;;17.45;3.40;;;14.60;99.90;;;;;;6131310;29;20058;-78
2023/03/30 08:30:16;;;;;;;14.35;4.03;;;14.60;99.90;;;;;;6151843;29;20059;-79
2023/03/30 08:33:19;;;;;;;11.30;3.38;;;14.50;99.90;;;;;;6151581;28;20055;-78
2023/03/30 08:36:21;;;;;;;18.23;3.55;;;14.40;99.90;;;;;;6146267;29;20162;-80
2023/03/30 08:39:23;;;;;;;11.05;3.35;;;14.40;99.90;;;;;;6128147;29;20056;-80
2023/03/30 08:42:48;;;;;;;13.07;3.45;;;14.30;99.90;;;;;;6127947;29;20048;-78
2023/03/30 08:45:51;;;;;;;12.25;3.42;;;14.30;99.90;;;;;;6127116;29;20062;-80
2023/03/30 08:48:58;;;;;;;12.63;3.22;;;14.30;99.90;;;;;;6127463;29;20521;-79
2023/03/30 08:52:03;;;;;;;12.13;3.05;;;14.20;99.90;;;;;;6127997;29;20122;-80
2023/03/30 08:55:09;;;;;;;11.95;3.58;;;14.20;99.90;;;;;;6127303;29;20056;-78
2023/03/30 08:58:21;;;;;;;14.05;3.55;;;14.10;99.90;;;;;;6127353;29;20047;-79
2023/03/30 09:01:27;;;;;;;15.10;3.90;;;14.00;99.90;;;;;;6127292;29;20048;-79
2023/03/30 09:04:42;;;;;;;16.02;3.85;;;14.10;99.90;;;;;;6145158;29;20043;-81
2023/03/30 09:07:52;;;;;;;15.10;3.97;;;14.20;99.90;;;;;;6149232;29;20062;-79
2023/03/30 09:11:00;;;;;;;12.02;3.28;;;14.20;99.90;;;;;;6150879;29;20062;-79
2023/03/30 09:14:06;;;;;;;14.52;3.38;;;14.20;99.90;;;;;;6143739;29;20043;-80
2023/03/30 09:17:15;;;;;;;10.70;3.10;;;14.10;99.90;;;;;;6136901;29;20405;-78
2023/03/30 09:20:24;;;;;;;9.48;2.97;;;14.10;99.90;;;;;;6126314;29;20056;-78
2023/03/30 09:23:29;;;;;;;10.27;2.65;;;14.00;99.90;;;;;;6126409;29;20051;-78
2023/03/30 09:26:42;;;;;;;10.40;2.50;;;13.90;99.90;;;;;;6126738;29;20071;-77
2023/03/30 09:29:48;;;;;;;8.18;2.50;;;13.80;99.90;;;;;;6126977;29;20061;-80
2023/03/30 09:33:00;;;;;;;10.55;2.50;;;13.80;99.90;;;;;;6126367;29;20075;-79
2023/03/30 09:36:14;;;;;;;7.50;2.30;;;13.70;99.90;;;;;;6126388;29;20062;-78
2023/03/30 09:39:20;;;;;;;6.32;2.33;;;13.70;99.90;;;;;;6126451;29;20131;-80
2023/03/30 09:42:33;;;;;;;6.47;2.25;;;13.70;99.90;;;;;;6126509;29;20607;-80
2023/03/30 09:45:35;;;;;;;;;;;13.70;99.90;;;;;;6130597;29;20047;-79
2023/03/30 09:48:40;;;;;;;10.27;2.30;;;13.60;99.90;;;;;;6149684;29;19928;-78
2023/03/30 09:52:02;;;;;;;7.60;2.30;;;13.60;99.90;;;;;;6150070;29;20058;-78
2023/03/30 09:55:26;;;;;;;6.43;2.40;;;13.60;99.90;;;;;;6128624;29;20489;-79
2023/03/30 09:58:30;;;;;;;15.73;6.60;;;13.60;99.90;;;;;;6146543;28;20059;-78
2023/03/30 10:01:37;;;;;;;7.93;2.67;;;13.70;99.90;;;;;;6149442;29;20055;-78
2023/03/30 10:05:00;;;;;;;7.70;2.25;;;13.80;99.90;;;;;;6149358;29;20497;-79
2023/03/30 10:08:06;;;;;;;8.70;2.45;;;13.90;99.90;;;;;;6147542;29;20051;-80
2023/03/30 10:11:08;;;;;;;6.25;2.20;;;14.00;99.90;;;;;;6148956;29;20394;-79
2023/03/30 10:14:29;;;;;;;7.75;2.20;;;14.00;99.90;;;;;;6147469;29;20098;-78
2023/03/30 10:17:31;;;;;;;6.70;2.38;;;14.10;99.90;;;;;;6149218;29;20105;-80
2023/03/30 10:20:35;;;;;;;6.32;2.00;;;14.00;99.90;;;;;;6136883;29;20062;-80
2023/03/30 10:23:41;;;;;;;8.20;2.70;;;14.00;99.90;;;;;;6125211;29;20425;-78
2023/03/30 10:26:47;;;;;;;7.78;2.80;;;14.00;99.90;;;;;;6125268;29;20199;-79
2023/03/30 10:29:51;;;;;;;8.70;2.78;;;14.00;99.90;;;;;;6124970;29;20056;-79
2023/03/30 10:32:56;;;;;;;8.55;2.35;;;14.10;99.90;;;;;;6124985;29;20146;-80
2023/03/30 10:36:00;;;;;;;8.05;2.22;;;14.00;99.90;;;;;;6126393;29;20059;-78
2023/03/30 10:39:12;;;;;;;7.78;2.33;;;14.00;99.90;;;;;;6124833;29;20526;-78
2023/03/30 10:42:18;;;;;;;5.90;2.22;;;14.00;99.90;;;;;;6124852;29;20058;-78
2023/03/30 10:45:28;;;;;;;8.65;2.30;;;14.10;99.90;;;;;;6124778;29;20516;-79
2023/03/30 10:49:00;;;;;;;6.03;2.30;;;14.10;99.90;;;;;;6136291;29;20052;-78
2023/03/30 10:52:12;;;;;;;6.53;2.80;;;14.00;99.90;;;;;;6149382;29;20053;-78
2023/03/30 10:55:21;;;;;;;24.90;11.15;;;14.00;99.90;;;;;;6148505;29;20416;-78
2023/03/30 10:58:41;;;;;;;17.40;7.35;;;14.10;99.90;;;;;;6148291;29;20058;-76
2023/03/30 11:01:59;;;;;;;6.55;2.40;;;14.10;99.90;;;;;;6148465;29;20134;-78
2023/03/30 11:05:08;;;;;;;7.97;2.60;;;14.20;99.90;;;;;;6124801;29;20503;-79
2023/03/30 11:08:15;;;;;;;7.10;2.45;;;14.10;99.90;;;;;;6124462;29;20533;-80
2023/03/30 11:11:22;;;;;;;8.80;2.42;;;14.10;99.90;;;;;;6124301;29;20058;-79
2023/03/30 11:14:37;;;;;;;7.30;2.60;;;14.10;99.90;;;;;;6123599;29;20055;-78
2023/03/30 11:17:50;;;;;;;6.00;2.35;;;14.20;99.90;;;;;;6133212;29;20497;-78
2023/03/30 11:21:00;;;;;;;10.30;2.85;;;14.10;99.90;;;;;;6148207;29;20067;-78
2023/03/30 11:24:07;;;;;;;6.65;2.33;;;14.20;99.90;;;;;;6147864;29;20055;-79
2023/03/30 11:27:17;;;;;;;11.50;2.97;;;14.20;99.90;;;;;;6148080;29;20519;-77
2023/03/30 11:30:26;;;;;;;7.53;3.00;;;14.40;99.90;;;;;;6148135;29;20096;-80
2023/03/30 11:33:36;;;;;;;8.85;2.80;;;14.40;99.90;;;;;;6138316;29;20047;-77
2023/03/30 11:36:46;;;;;;;7.95;3.13;;;14.40;99.90;;;;;;6134728;29;20071;-81
2023/03/30 11:39:55;;;;;;;10.82;3.35;;;14.40;99.90;;;;;;6147479;29;20048;-80
2023/03/30 11:42:58;;;;;;;12.15;3.30;;;14.50;99.90;;;;;;6147993;29;20048;-79
2023/03/30 11:46:07;;;;;;;7.57;3.05;;;14.70;99.90;;;;;;6147718;29;20537;-77
2023/03/30 11:49:41;;;;;;;9.63;3.30;;;14.80;99.90;;;;;;6147630;29;20396;-78
2023/03/30 11:52:56;;;;;;;7.88;2.90;;;14.90;99.90;;;;;;6142404;29;20063;-79
2023/03/30 11:56:07;;;;;;;7.72;2.95;;;15.00;99.90;;;;;;6123662;29;20078;-78
2023/03/30 11:59:22;;;;;;;8.07;2.72;;;14.90;99.90;;;;;;6135076;29;20055;-78
2023/03/30 12:02:31;;;;;;;8.35;2.90;;;14.90;99.90;;;;;;6123346;29;20501;-79
2023/03/30 12:05:37;;;;;;;7.85;2.80;;;14.90;99.90;;;;;;6123410;29;20433;-79
2023/03/30 12:09:04;;;;;;;10.13;3.10;;;14.90;99.90;;;;;;6123091;29;20052;-78
2023/03/30 12:12:14;;;;;;;9.75;3.03;;;14.90;99.90;;;;;;6126406;29;20081;-81
2023/03/30 12:15:34;;;;;;;8.07;3.03;;;14.90;99.90;;;;;;6145125;29;20047;-78
2023/03/30 12:18:42;;;;;;;8.50;3.00;;;15.00;99.90;;;;;;6146961;29;20074;-79
2023/03/30 12:21:53;;;;;;;7.70;2.80;;;15.10;99.90;;;;;;6145073;28;20145;-79
2023/03/30 12:25:00;;;;;;;7.97;3.35;;;15.10;99.90;;;;;;6127773;29;20048;-79
2023/03/30 12:28:14;;;;;;;9.75;3.20;;;15.10;99.90;;;;;;6128362;29;20059;-80
2023/03/30 12:31:18;;;;;;;9.10;2.80;;;15.10;99.90;;;;;;6126922;29;20394;-79
2023/03/30 12:34:21;;;;;;;8.25;3.40;;;15.20;99.90;;;;;;6127533;29;20048;-77
2023/03/30 12:37:32;;;;;;;8.57;3.05;;;15.30;99.90;;;;;;6128958;29;20051;-79
2023/03/30 12:40:37;;;;;;;9.65;3.15;;;15.40;99.90;;;;;;6127098;29;20055;-79
2023/03/30 12:44:02;;;;;;;10.02;2.60;;;15.50;99.90;;;;;;6127054;29;20056;-76
2023/03/30 12:47:42;;;;;;;9.65;3.15;;;15.50;99.90;;;;;;6126790;29;20044;-78
2023/03/30 12:50:59;;;;;;;7.20;2.47;;;15.50;99.90;;;;;;6126858;29;20054;-77
2023/03/30 12:54:41;;;;;;;7.20;2.85;;;15.50;99.70;;;;;;6126945;29;20560;-76
2023/03/30 12:57:57;;;;;;;9.45;2.90;;;15.70;99.90;;;;;;6126415;29;20062;-77
2023/03/30 13:01:23;;;;;;;5.50;2.40;;;15.80;99.30;;;;;;6126825;29;20063;-79
2023/03/30 13:04:28;;;;;;;5.70;2.33;;;16.00;98.20;;;;;;6127097;29;20056;-77
2023/03/30 13:07:35;;;;;;;6.93;2.40;;;16.50;97.90;;;;;;6126745;29;20071;-79
2023/03/30 13:10:41;;;;;;;6.45;2.42;;;16.60;97.20;;;;;;6126605;29;20126;-78
2023/03/30 13:13:56;;;;;;;6.00;2.58;;;16.70;96.60;;;;;;6143808;29;20178;-79
2023/03/30 13:17:14;;;;;;;7.07;2.65;;;16.70;96.50;;;;;;6150032;29;20062;-79
2023/03/30 13:20:20;;;;;;;7.30;2.83;;;16.70;96.70;;;;;;6149502;29;20062;-78
2023/03/30 13:23:27;;;;;;;8.25;2.63;;;16.50;97.00;;;;;;6150197;29;20217;-77
2023/03/30 13:26:41;;;;;;;7.28;2.47;;;16.80;96.70;;;;;;6149756;29;20062;-79
2023/03/30 13:29:53;;;;;;;6.43;2.42;;;16.80;96.40;;;;;;6150038;29;20404;-78
2023/03/30 13:33:14;;;;;;;7.45;2.53;;;16.90;96.20;;;;;;6148209;28;20285;-77
2023/03/30 13:36:22;;;;;;;8.90;2.53;;;17.10;96.10;;;;;;6136493;29;20059;-78
2023/03/30 13:39:37;;;;;;;6.40;2.45;;;17.40;95.30;;;;;;6126050;29;20127;-78
2023/03/30 13:42:50;;;;;;;5.32;2.20;;;17.60;94.60;;;;;;6125810;29;20142;-78
2023/03/30 13:45:59;;;;;;;6.32;2.40;;;18.10;94.20;;;;;;6125864;29;20056;-80
2023/03/30 13:49:16;;;;;;;5.22;2.30;;;18.10;92.40;;;;;;6126867;29;20048;-78
2023/03/30 13:52:28;;;;;;;5.93;2.13;;;18.20;91.30;;;;;;6125516;29;20055;-77
2023/03/30 13:55:32;;;;;;;8.43;2.40;;;18.40;91.00;;;;;;6125665;29;20163;-79
2023/03/30 13:58:35;;;;;;;6.30;1.90;;;18.90;90.30;;;;;;6125634;29;20060;-77
2023/03/30 14:01:38;;;;;;;8.57;2.70;;;18.60;90.00;;;;;;6126402;29;20047;-78
2023/03/30 14:04:40;;;;;;;7.65;2.13;;;18.90;87.90;;;;;;6125054;29;20062;-78
2023/03/30 14:07:46;;;;;;;8.85;2.75;;;19.00;85.80;;;;;;6125047;29;20060;-77
2023/03/30 14:10:49;;;;;;;5.20;1.80;;;19.30;86.00;;;;;;6125196;29;20477;-78
2023/03/30 14:13:53;;;;;;;7.38;1.95;;;19.50;82.00;;;;;;6123238;29;20067;-78
2023/03/30 14:16:56;;;;;;;5.25;1.63;;;19.10;79.80;;;;;;6125923;29;20066;-78
2023/03/30 14:20:14;;;;;;;6.15;1.83;;;18.60;81.20;;;;;;6125066;29;20055;-79
2023/03/30 14:23:23;;;;;;;4.57;1.80;;;19.30;79.40;;;;;;6125053;29;20062;-77
2023/03/30 14:26:27;;;;;;;7.85;1.80;;;19.30;76.90;;;;;;6124862;29;20051;-79
2023/03/30 14:29:31;;;;;;;4.68;1.42;;;19.30;76.80;;;;;;6124721;29;20379;-78
2023/03/30 14:32:32;;;;;;;5.97;2.00;;;19.40;76.60;;;;;;6125725;28;20055;-79
2023/03/30 14:35:38;;;;;;;6.15;1.85;;;19.10;75.80;;;;;;6124377;29;20055;-79
2023/03/30 14:38:43;;;;;;;6.10;1.70;;;18.60;77.40;;;;;;6124379;29;20493;-79
2023/03/30 14:41:45;;;;;;;5.78;1.88;;;18.50;77.90;;;;;;6124399;29;20377;-79
2023/03/30 14:44:50;;;;;;;5.45;1.77;;;18.30;79.00;;;;;;6125090;28;20044;-79
2023/03/30 14:47:55;;;;;;;5.40;1.80;;;18.10;80.60;;;;;;6124684;29;20063;-78
2023/03/30 14:50:57;;;;;;;7.25;1.98;;;19.60;76.40;;;;;;6124868;29;20054;-77
2023/03/30 14:54:00;;;;;;;5.35;1.60;;;19.00;77.30;;;;;;6142386;29;20051;-78
2023/03/30 14:57:05;;;;;;;6.90;1.80;;;18.20;79.50;;;;;;6144537;29;20047;-78
2023/03/30 15:00:19;;;;;;;5.45;1.90;;;17.90;80.30;;;;;;6131089;29;20476;-79
2023/03/30 15:03:22;;;;;;;;;;;17.80;82.10;;;;;;6146914;29;20051;-79
2023/03/30 15:06:25;;;;;;;6.30;1.90;;;18.30;81.90;;;;;;6147243;29;19926;-76
2023/03/30 15:09:37;;;;;;;5.70;1.80;;;20.00;76.10;;;;;;6147536;29;20058;-76
2023/03/30 15:12:48;;;;;;;5.35;1.67;;;19.40;75.40;;;;;;6133497;29;20057;-77
2023/03/30 15:15:53;;;;;;;4.50;1.20;;;18.30;75.80;;;;;;6139694;29;20055;-79
2023/03/30 15:19:03;;;;;;;5.53;2.28;;;17.90;76.90;;;;;;6141486;29;20066;-77
2023/03/30 15:22:13;;;;;;;6.10;1.80;;;17.40;77.10;;;;;;6137084;29;20048;-75
2023/03/30 15:25:19;;;;;;;4.85;1.48;;;17.30;78.30;;;;;;6146147;28;20047;-77
2023/03/30 15:28:22;;;;;;;4.50;1.40;;;17.80;77.80;;;;;;6148067;29;20091;-78
2023/03/30 15:31:27;;;;;;;5.28;1.33;;;17.10;79.70;;;;;;6147790;28;20059;-79
2023/03/30 15:34:29;;;;;;;5.18;1.40;;;16.90;79.70;;;;;;6144672;29;20048;-78
2023/03/30 15:37:32;;;;;;;4.60;1.33;;;16.90;80.20;;;;;;6148167;29;20059;-77
2023/03/30 15:40:38;;;;;;;4.80;1.42;;;19.20;76.10;;;;;;6150919;29;20062;-79
2023/03/30 15:43:54;;;;;;;3.90;1.20;;;22.50;67.90;;;;;;6145001;29;20044;-78
2023/03/30 15:46:58;;;;;;;4.68;1.42;;;23.50;62.00;;;;;;6135438;29;20051;-79
2023/03/30 15:50:00;;;;;;;4.65;1.25;;;22.50;62.40;;;;;;6128407;29;20059;-76
2023/03/30 15:53:02;;;;;;;3.70;1.37;;;22.00;64.00;;;;;;6131589;29;20083;-78
2023/03/30 15:56:12;;;;;;;3.95;1.50;;;21.60;64.40;;;;;;6142016;29;20318;-77
2023/03/30 15:59:17;;;;;;;3.90;1.25;;;22.40;64.10;;;;;;6139215;29;20062;-76
2023/03/30 16:02:22;;;;;;;6.28;1.50;;;24.30;59.60;;;;;;6139856;29;20108;-78
2023/03/30 16:05:26;;;;;;;4.05;1.20;;;25.80;56.60;;;;;;6131688;29;20416;-78
2023/03/30 16:08:28;;;;;;;3.78;1.00;;;26.90;53.10;;;;;;6141006;29;20066;-80
2023/03/30 16:11:31;;;;;;;3.25;1.10;;;27.20;51.30;;;;;;6152548;29;20051;-77
2023/03/30 16:14:33;;;;;;;3.25;1.00;;;26.90;50.90;;;;;;6149425;29;20055;-78
2023/03/30 16:17:35;;;;;;;3.35;1.10;;;27.00;49.70;;;;;;6150179;29;20495;-80
2023/03/30 16:20:37;;;;;;;3.35;1.02;;;27.50;49.00;;;;;;6129556;29;20077;-78
2023/03/30 16:23:39;;;;;;;4.35;1.17;;;27.80;48.20;;;;;;6136159;29;20054;-79
2023/03/30 16:26:42;;;;;;;2.90;0.95;;;26.60;48.80;;;;;;6130025;29;20052;-78
2023/03/30 16:29:44;;;;;;;4.13;1.33;;;25.20;50.50;;;;;;6146222;29;20047;-76
2023/03/30 16:32:46;;;;;;;3.08;1.33;;;25.10;51.30;;;;;;6127571;28;20611;-78
2023/03/30 16:35:48;;;;;;;3.17;0.93;;;26.50;49.80;;;;;;6128655;29;20047;-80
2023/03/30 16:38:50;;;;;;;4.97;1.20;;;27.60;48.70;;;;;;6129625;29;20190;-79
2023/03/30 16:41:54;;;;;;;6.43;2.00;;;28.40;47.40;;;;;;6137851;29;20052;-78
2023/03/30 16:44:56;;;;;;;2.53;0.90;;;28.50;46.90;;;;;;6127839;29;20061;-79
2023/03/30 16:47:58;;;;;;;8.90;4.63;;;27.20;46.70;;;;;;6150738;29;20051;-79
2023/03/30 16:51:00;;;;;;;3.95;1.10;;;25.70;48.80;;;;;;6151616;29;20187;-80
2023/03/30 16:54:02;;;;;;;5.32;2.00;;;24.50;51.50;;;;;;6151690;29;20413;-80
2023/03/30 16:57:05;;;;;;;3.13;1.00;;;23.90;52.80;;;;;;6143387;29;20185;-78
2023/03/30 17:00:19;;;;;;;4.55;1.00;;;24.20;52.50;;;;;;6137783;28;20055;-77
2023/03/30 17:03:21;;;;;;;3.60;1.10;;;23.70;53.10;;;;;;6145852;29;20409;-78
2023/03/30 17:06:23;;;;;;;3.92;1.20;;;22.60;55.10;;;;;;6149144;28;20055;-76
2023/03/30 17:09:25;;;;;;;4.10;1.10;;;22.00;56.50;;;;;;6142758;29;20048;-77
2023/03/30 17:12:29;;;;;;;3.83;1.30;;;20.60;58.80;;;;;;6155534;28;20047;-78
2023/03/30 17:15:33;;;;;;;;;;;20.00;61.20;;;;;;6144784;29;20050;-77
2023/03/30 17:18:36;;;;;;;3.45;1.05;;;19.50;62.20;;;;;;6149167;29;19926;-79
2023/03/30 17:21:39;;;;;;;6.28;1.63;;;19.10;63.80;;;;;;6137833;29;20050;-78
2023/03/30 17:24:41;;;;;;;6.65;2.58;;;18.70;65.70;;;;;;6150287;29;20047;-80
2023/03/30 17:27:44;;;;;;;3.35;1.20;;;18.30;66.20;;;;;;6151688;29;20073;-78
2023/03/30 17:30:46;;;;;;;4.20;1.20;;;18.10;67.40;;;;;;6125711;29;20070;-78
2023/03/30 17:33:49;;;;;;;4.28;1.10;;;17.90;68.40;;;;;;6117996;29;20048;-79
2023/03/30 17:36:51;;;;;;;3.78;1.20;;;17.40;69.80;;;;;;6120090;29;20416;-81
2023/03/30 17:39:52;;;;;;;5.28;1.20;;;17.30;70.80;;;;;;6119172;29;20056;-78
2023/03/30 17:42:56;;;;;;;3.25;1.15;;;17.00;71.90;;;;;;6133454;29;20059;-77
2023/03/30 17:45:58;;;;;;;4.47;1.52;;;16.90;73.20;;;;;;6131908;29;20051;-79
2023/03/30 17:49:00;;;;;;;5.32;1.50;;;16.80;74.10;;;;;;6138068;29;20058;-79
2023/03/30 17:52:02;;;;;;;4.22;1.27;;;16.50;75.00;;;;;;6149171;29;20051;-80
2023/03/30 17:55:07;;;;;;;3.60;1.23;;;16.30;76.30;;;;;;6144460;29;20193;-78
2023/03/30 17:58:16;;;;;;;;;;;16.20;77.20;;;;;;6136222;29;20056;-78
2023/03/30 18:01:18;;;;;;;4.95;1.52;;;16.10;78.10;;;;;;6137804;29;19948;-79
2023/03/30 18:04:20;;;;;;;5.20;1.20;;;15.90;79.30;;;;;;6148528;29;20051;-78
2023/03/30 18:07:22;;;;;;;3.60;1.40;;;15.80;80.10;;;;;;6148629;29;20059;-78
2023/03/30 18:10:27;;;;;;;4.63;1.33;;;15.80;80.90;;;;;;6148270;29;20047;-78
2023/03/30 18:13:31;;;;;;;4.57;1.40;;;15.60;81.80;;;;;;6138567;29;20074;-80
2023/03/30 18:16:33;;;;;;;4.55;1.70;;;15.50;82.60;;;;;;6138247;29;20051;-74
2023/03/30 18:19:35;;;;;;;3.95;1.45;;;15.50;83.50;;;;;;6124394;29;20051;-78
2023/03/30 18:22:36;;;;;;;3.63;1.50;;;15.40;84.70;;;;;;6137058;29;20416;-80
2023/03/30 18:25:38;;;;;;;5.22;2.00;;;15.40;85.10;;;;;;6138450;29;20062;-75
2023/03/30 18:28:42;;;;;;;6.78;3.15;;;15.30;85.60;;;;;;6140686;29;20058;-76
2023/03/30 18:31:44;;;;;;;;;;;15.30;86.20;;;;;;6145385;29;20095;-76
2023/03/30 18:34:53;;;;;;;3.47;1.48;;;15.20;86.50;;;;;;6143309;29;19923;-77
2023/03/30 18:37:55;;;;;;;3.85;1.30;;;15.20;86.90;;;;;;6149422;29;20043;-76
2023/03/30 18:40:57;;;;;;;4.20;1.60;;;15.10;86.80;;;;;;6148599;29;20059;-75
2023/03/30 18:44:01;;;;;;;4.40;1.42;;;15.00;87.40;;;;;;6145754;29;20411;-78
2023/03/30 18:47:05;;;;;;;4.68;1.58;;;14.90;87.40;;;;;;6157193;28;20086;-78
2023/03/30 18:50:17;;;;;;;4.72;1.60;;;14.90;87.40;;;;;;6137009;28;20098;-79
2023/03/30 18:53:21;;;;;;;5.82;1.58;;;14.80;87.50;;;;;;6137824;29;20044;-77
2023/03/30 18:56:23;;;;;;;3.90;1.30;;;14.70;87.40;;;;;;6135216;29;20557;-77
2023/03/30 18:59:27;;;;;;;5.72;1.40;;;14.70;87.70;;;;;;6146254;29;20047;-77
2023/03/30 19:02:29;;;;;;;13.30;6.22;;;14.60;87.60;;;;;;6148181;29;20062;-78
2023/03/30 19:05:34;;;;;;;7.88;3.47;;;14.50;87.80;;;;;;6147323;29;20051;-76
2023/03/30 19:08:36;;;;;;;17.73;7.30;;;14.40;88.10;;;;;;6134522;29;20058;-77
2023/03/30 19:11:40;;;;;;;6.35;1.90;;;14.40;88.80;;;;;;6127350;29;20101;-77
2023/03/30 19:14:43;;;;;;;5.38;1.60;;;14.30;89.40;;;;;;6144155;29;20047;-79
2023/03/30 19:17:46;;;;;;;4.95;1.25;;;14.30;90.30;;;;;;6130512;29;20075;-77
2023/03/30 19:20:49;;;;;;;5.25;1.40;;;14.20;90.40;;;;;;6123671;29;20055;-79
2023/03/30 19:23:51;;;;;;;6.05;1.73;;;14.20;90.70;;;;;;6145880;29;20051;-77
2023/03/30 19:26:54;;;;;;;4.03;1.42;;;14.10;91.20;;;;;;6147394;29;20052;-77
2023/03/30 19:29:57;;;;;;;5.45;1.60;;;14.00;91.40;;;;;;6149105;28;20058;-79
2023/03/30 19:33:02;;;;;;;5.88;1.83;;;14.00;91.70;;;;;;6152121;28;20062;-80
2023/03/30 19:36:10;;;;;;;4.68;1.30;;;14.00;92.00;;;;;;6152357;29;20070;-79
2023/03/30 19:39:17;;;;;;;7.05;1.85;;;13.90;92.30;;;;;;6152393;29;20134;-76
2023/03/30 19:42:20;;;;;;;6.40;1.77;;;13.90;92.60;;;;;;6140711;29;20517;-77
2023/03/30 19:45:25;;;;;;;6.03;1.90;;;13.90;92.70;;;;;;6134079;29;20068;-77
2023/03/30 19:48:30;;;;;;;5.75;1.70;;;13.90;92.90;;;;;;6153346;29;20063;-77
2023/03/30 19:51:32;;;;;;;6.13;1.85;;;13.90;93.10;;;;;;6153112;29;20043;-77
2023/03/30 19:54:39;;;;;;;8.05;2.00;;;13.90;93.20;;;;;;6141034;29;20106;-77
2023/03/30 19:57:41;;;;;;;4.57;1.67;;;13.80;93.30;;;;;;6140794;29;20051;-77
2023/03/30 20:00:48;;;;;;;6.38;1.80;;;13.70;93.40;;;;;;6150866;29;20101;-77
2023/03/30 20:03:58;;;;;;;6.00;2.03;;;13.70;93.70;;;;;;6153494;29;20130;-78
2023/03/30 20:07:00;;;;;;;5.55;2.00;;;13.70;93.90;;;;;;6152964;29;20405;-76
2023/03/30 20:10:03;;;;;;;3.97;1.80;;;13.60;94.00;;;;;;6152012;29;20055;-77
2023/03/30 20:13:08;;;;;;;7.32;2.38;;;13.60;94.20;;;;;;6149961;29;20159;-79
2023/03/30 20:16:19;;;;;;;7.22;2.42;;;13.60;94.30;;;;;;6152193;29;20420;-77
2023/03/30 20:19:22;;;;;;;7.93;2.20;;;13.50;94.60;;;;;;6152065;29;20576;-79
2023/03/30 20:22:25;;;;;;;8.73;2.30;;;13.50;94.80;;;;;;6148452;29;20051;-77
2023/03/30 20:25:27;;;;;;;6.05;1.90;;;13.40;95.00;;;;;;6147655;29;20126;-77
2023/03/30 20:28:29;;;;;;;11.65;2.55;;;13.40;95.20;;;;;;6140959;29;20078;-78
2023/03/30 20:31:33;;;;;;;5.75;2.10;;;13.40;95.30;;;;;;6150804;28;20054;-77
2023/03/30 20:34:35;;;;;;;8.15;2.10;;;13.30;95.40;;;;;;6151000;29;20056;-79
2023/03/30 20:37:37;;;;;;;5.28;2.22;;;13.30;95.40;;;;;;6151684;29;20417;-76
2023/03/30 20:40:42;;;;;;;8.67;2.30;;;13.30;95.50;;;;;;6151939;29;20058;-80
2023/03/30 20:43:49;;;;;;;7.18;2.40;;;13.20;95.50;;;;;;6146347;28;20039;-77
2023/03/30 20:46:56;;;;;;;9.00;2.33;;;13.10;95.40;;;;;;6146132;29;20059;-78
2023/03/30 20:49:59;;;;;;;6.28;2.33;;;13.10;95.30;;;;;;6151605;29;20131;-77
2023/03/30 20:53:10;;;;;;;6.80;2.10;;;13.10;95.30;;;;;;6150351;29;20501;-77
2023/03/30 20:56:12;;;;;;;6.70;2.22;;;13.00;95.30;;;;;;6127422;29;20051;-79
2023/03/30 20:59:14;;;;;;;9.45;2.72;;;13.00;95.20;;;;;;6137838;29;20051;-79
2023/03/30 21:02:18;;;;;;;8.50;2.17;;;13.00;95.20;;;;;;6150197;29;20538;-78
2023/03/30 21:05:24;;;;;;;7.32;2.30;;;12.90;95.20;;;;;;6151799;29;20528;-76
2023/03/30 21:08:26;;;;;;;6.03;2.15;;;12.90;95.00;;;;;;6149915;29;20070;-76
2023/03/30 21:11:32;;;;;;;6.47;2.00;;;12.90;95.00;;;;;;6149998;29;20100;-78
2023/03/30 21:14:34;;;;;;;5.97;1.98;;;12.90;94.90;;;;;;6149577;29;20051;-78
2023/03/30 21:17:37;;;;;;;6.78;1.98;;;12.90;94.80;;;;;;6151340;29;20496;-76
2023/03/30 21:20:39;;;;;;;6.45;1.88;;;12.90;94.80;;;;;;6151511;29;20061;-77
2023/03/30 21:23:42;;;;;;;6.93;2.20;;;12.80;94.70;;;;;;6148601;29;20051;-77
2023/03/30 21:26:44;;;;;;;6.15;1.67;;;12.90;94.60;;;;;;6151613;29;20054;-77
2023/03/30 21:29:46;;;;;;;5.82;2.03;;;12.90;94.50;;;;;;6131000;29;20056;-80
2023/03/30 21:32:50;;;;;;;7.18;2.05;;;12.90;94.50;;;;;;6140907;28;20059;-78
2023/03/30 21:35:53;;;;;;;8.60;1.95;;;12.80;94.40;;;;;;6150370;29;20062;-77
2023/03/30 21:38:57;;;;;;;6.85;1.95;;;12.90;94.30;;;;;;6150239;29;20058;-79
2023/03/30 21:41:59;;;;;;;6.82;2.00;;;12.80;94.30;;;;;;6148616;29;20051;-77
2023/03/30 21:45:01;;;;;;;8.52;1.73;;;12.90;94.30;;;;;;6146817;29;20516;-78
2023/03/30 21:48:05;;;;;;;8.75;1.65;;;12.90;94.30;;;;;;6147172;29;20039;-77
2023/03/30 21:51:12;;;;;;;5.57;1.65;;;12.90;94.30;;;;;;6126752;29;20759;-76
2023/03/30 21:54:14;;;;;;;6.68;1.73;;;12.90;94.20;;;;;;6148890;28;20051;-76
2023/03/30 21:57:16;;;;;;;6.03;1.70;;;12.90;94.20;;;;;;6148664;28;20183;-78
